sensor_id;sensor_type;location;lat;lon;timestamp;temperature;humidity
36710;DHT22;22694;51.040;3.684;2022-09-21T00:00:33;15.90;86.90
36710;DHT22;22694;51.040;3.684;2022-09-21T00:02:59;15.90;86.90
36710;DHT22;22694;51.040;3.684;2022-09-21T00:05:25;15.80;86.80
36710;DHT22;22694;51.040;3.684;2022-09-21T00:07:51;15.80;86.90
36710;DHT22;22694;51.040;3.684;2022-09-21T00:10:18;15.80;86.80
36710;DHT22;22694;51.040;3.684;2022-09-21T00:12:45;15.80;86.80
36710;DHT22;22694;51.040;3.684;2022-09-21T00:15:14;15.80;86.80
36710;DHT22;22694;51.040;3.684;2022-09-21T00:17:42;15.70;86.70
36710;DHT22;22694;51.040;3.684;2022-09-21T00:20:08;15.80;86.90
36710;DHT22;22694;51.040;3.684;2022-09-21T00:22:35;15.80;86.90
36710;DHT22;22694;51.040;3.684;2022-09-21T00:25:01;15.70;86.90
36710;DHT22;22694;51.040;3.684;2022-09-21T00:27:30;15.70;86.90
36710;DHT22;22694;51.040;3.684;2022-09-21T00:29:59;15.70;86.90
36710;DHT22;22694;51.040;3.684;2022-09-21T00:32:30;15.70;86.90
36710;DHT22;22694;51.040;3.684;2022-09-21T00:34:59;15.70;86.90
36710;DHT22;22694;51.040;3.684;2022-09-21T00:37:26;15.70;86.90
36710;DHT22;22694;51.040;3.684;2022-09-21T00:39:52;15.70;86.90
36710;DHT22;22694;51.040;3.684;2022-09-21T00:42:30;15.70;86.90
36710;DHT22;22694;51.040;3.684;2022-09-21T00:44:57;15.70;86.90
36710;DHT22;22694;51.040;3.684;2022-09-21T00:47:33;15.70;86.90
36710;DHT22;22694;51.040;3.684;2022-09-21T00:50:04;15.60;86.80
36710;DHT22;22694;51.040;3.684;2022-09-21T00:52:34;15.60;86.90
36710;DHT22;22694;51.040;3.684;2022-09-21T00:55:12;15.60;86.90
36710;DHT22;22694;51.040;3.684;2022-09-21T00:57:39;15.60;86.90
36710;DHT22;22694;51.040;3.684;2022-09-21T01:00:07;15.60;86.90
36710;DHT22;22694;51.040;3.684;2022-09-21T01:02:36;15.60;86.90
36710;DHT22;22694;51.040;3.684;2022-09-21T01:05:03;15.60;86.90
36710;DHT22;22694;51.040;3.684;2022-09-21T01:07:30;15.60;86.90
36710;DHT22;22694;51.040;3.684;2022-09-21T01:10:02;15.50;86.80
36710;DHT22;22694;51.040;3.684;2022-09-21T01:29:45;15.50;87.10
36710;DHT22;22694;51.040;3.684;2022-09-21T01:32:18;15.40;86.90
36710;DHT22;22694;51.040;3.684;2022-09-21T01:37:53;15.40;87.10
36710;DHT22;22694;51.040;3.684;2022-09-21T01:40:40;15.40;87.10
36710;DHT22;22694;51.040;3.684;2022-09-21T01:43:12;15.40;87.00
36710;DHT22;22694;51.040;3.684;2022-09-21T01:45:48;15.30;87.00
36710;DHT22;22694;51.040;3.684;2022-09-21T01:48:17;15.40;87.00
36710;DHT22;22694;51.040;3.684;2022-09-21T01:50:47;15.30;87.00
36710;DHT22;22694;51.040;3.684;2022-09-21T01:55:57;15.30;86.90
36710;DHT22;22694;51.040;3.684;2022-09-21T01:58:34;15.30;86.90
36710;DHT22;22694;51.040;3.684;2022-09-21T02:01:02;15.30;86.90
36710;DHT22;22694;51.040;3.684;2022-09-21T02:03:37;15.30;86.90
36710;DHT22;22694;51.040;3.684;2022-09-21T02:06:05;15.30;86.90
36710;DHT22;22694;51.040;3.684;2022-09-21T02:08:32;15.30;86.90
36710;DHT22;22694;51.040;3.684;2022-09-21T02:11:00;15.20;86.80
36710;DHT22;22694;51.040;3.684;2022-09-21T02:13:31;15.30;86.80
36710;DHT22;22694;51.040;3.684;2022-09-21T02:18:51;15.20;86.80
36710;DHT22;22694;51.040;3.684;2022-09-21T02:21:57;15.20;86.70
36710;DHT22;22694;51.040;3.684;2022-09-21T02:29:52;15.20;86.70
36710;DHT22;22694;51.040;3.684;2022-09-21T02:32:44;15.10;86.70
36710;DHT22;22694;51.040;3.684;2022-09-21T02:35:27;15.10;86.60
36710;DHT22;22694;51.040;3.684;2022-09-21T02:41:27;15.10;86.60
36710;DHT22;22694;51.040;3.684;2022-09-21T02:43:31;15.00;86.60
36710;DHT22;22694;51.040;3.684;2022-09-21T02:46:24;15.10;86.70
36710;DHT22;22694;51.040;3.684;2022-09-21T02:48:59;15.10;86.60
36710;DHT22;22694;51.040;3.684;2022-09-21T02:51:30;15.00;86.60
36710;DHT22;22694;51.040;3.684;2022-09-21T02:53:59;15.00;86.60
36710;DHT22;22694;51.040;3.684;2022-09-21T02:56:27;15.00;86.60
36710;DHT22;22694;51.040;3.684;2022-09-21T02:58:56;15.00;86.50
36710;DHT22;22694;51.040;3.684;2022-09-21T03:01:24;15.30;86.70
36710;DHT22;22694;51.040;3.684;2022-09-21T03:03:51;15.00;86.50
36710;DHT22;22694;51.040;3.684;2022-09-21T03:06:17;15.00;86.50
36710;DHT22;22694;51.040;3.684;2022-09-21T03:08:43;15.00;86.60
36710;DHT22;22694;51.040;3.684;2022-09-21T03:11:08;14.90;86.50
36710;DHT22;22694;51.040;3.684;2022-09-21T03:13:36;14.90;86.60
36710;DHT22;22694;51.040;3.684;2022-09-21T03:16:05;15.00;86.70
36710;DHT22;22694;51.040;3.684;2022-09-21T03:18:32;15.10;91.00
36710;DHT22;22694;51.040;3.684;2022-09-21T03:20:58;15.40;92.40
36710;DHT22;22694;51.040;3.684;2022-09-21T03:23:24;15.60;91.70
36710;DHT22;22694;51.040;3.684;2022-09-21T03:25:50;15.50;90.30
36710;DHT22;22694;51.040;3.684;2022-09-21T03:28:17;15.50;87.50
36710;DHT22;22694;51.040;3.684;2022-09-21T03:30:43;15.40;86.50
36710;DHT22;22694;51.040;3.684;2022-09-21T03:33:09;15.40;86.30
36710;DHT22;22694;51.040;3.684;2022-09-21T03:35:35;15.50;86.20
36710;DHT22;22694;51.040;3.684;2022-09-21T03:38:01;15.30;86.00
36710;DHT22;22694;51.040;3.684;2022-09-21T03:40:27;15.40;86.10
36710;DHT22;22694;51.040;3.684;2022-09-21T03:42:54;15.30;86.00
36710;DHT22;22694;51.040;3.684;2022-09-21T03:45:20;15.30;85.80
36710;DHT22;22694;51.040;3.684;2022-09-21T03:47:59;15.30;85.80
36710;DHT22;22694;51.040;3.684;2022-09-21T03:50:26;15.30;85.80
36710;DHT22;22694;51.040;3.684;2022-09-21T03:52:53;15.30;85.80
36710;DHT22;22694;51.040;3.684;2022-09-21T03:55:19;15.30;85.70
36710;DHT22;22694;51.040;3.684;2022-09-21T03:57:46;15.20;85.60
36710;DHT22;22694;51.040;3.684;2022-09-21T04:00:12;15.20;85.60
36710;DHT22;22694;51.040;3.684;2022-09-21T04:02:38;15.20;85.50
36710;DHT22;22694;51.040;3.684;2022-09-21T04:05:08;15.20;85.40
36710;DHT22;22694;51.040;3.684;2022-09-21T04:07:34;15.20;85.40
36710;DHT22;22694;51.040;3.684;2022-09-21T04:10:06;15.20;85.30
36710;DHT22;22694;51.040;3.684;2022-09-21T04:12:34;15.20;85.30
36710;DHT22;22694;51.040;3.684;2022-09-21T04:15:01;15.20;85.40
36710;DHT22;22694;51.040;3.684;2022-09-21T04:17:27;15.20;85.40
36710;DHT22;22694;51.040;3.684;2022-09-21T04:19:52;15.10;85.30
36710;DHT22;22694;51.040;3.684;2022-09-21T04:22:18;15.10;85.30
36710;DHT22;22694;51.040;3.684;2022-09-21T04:24:44;15.10;85.40
36710;DHT22;22694;51.040;3.684;2022-09-21T04:27:10;15.10;85.30
36710;DHT22;22694;51.040;3.684;2022-09-21T04:29:37;15.10;85.30
36710;DHT22;22694;51.040;3.684;2022-09-21T04:32:03;15.10;85.30
36710;DHT22;22694;51.040;3.684;2022-09-21T04:34:29;15.10;85.30
36710;DHT22;22694;51.040;3.684;2022-09-21T04:36:56;15.10;85.30
36710;DHT22;22694;51.040;3.684;2022-09-21T04:39:22;15.00;85.10
36710;DHT22;22694;51.040;3.684;2022-09-21T04:41:48;15.00;85.80
36710;DHT22;22694;51.040;3.684;2022-09-21T04:44:14;15.10;85.30
36710;DHT22;22694;51.040;3.684;2022-09-21T04:46:40;15.00;85.20
36710;DHT22;22694;51.040;3.684;2022-09-21T04:49:06;15.00;85.30
36710;DHT22;22694;51.040;3.684;2022-09-21T04:51:33;15.00;85.20
36710;DHT22;22694;51.040;3.684;2022-09-21T04:53:59;15.00;85.20
36710;DHT22;22694;51.040;3.684;2022-09-21T04:56:24;15.00;85.20
36710;DHT22;22694;51.040;3.684;2022-09-21T04:58:50;15.10;85.30
36710;DHT22;22694;51.040;3.684;2022-09-21T05:01:16;15.00;85.30
36710;DHT22;22694;51.040;3.684;2022-09-21T05:03:41;15.00;85.40
36710;DHT22;22694;51.040;3.684;2022-09-21T05:06:07;14.90;85.90
36710;DHT22;22694;51.040;3.684;2022-09-21T05:08:35;15.00;86.30
36710;DHT22;22694;51.040;3.684;2022-09-21T05:11:19;15.00;86.10
36710;DHT22;22694;51.040;3.684;2022-09-21T05:13:46;15.00;86.00
36710;DHT22;22694;51.040;3.684;2022-09-21T05:16:12;15.00;85.80
36710;DHT22;22694;51.040;3.684;2022-09-21T05:18:38;15.00;85.70
36710;DHT22;22694;51.040;3.684;2022-09-21T05:21:04;14.90;85.50
36710;DHT22;22694;51.040;3.684;2022-09-21T05:23:30;14.90;85.60
36710;DHT22;22694;51.040;3.684;2022-09-21T05:25:57;14.90;85.50
36710;DHT22;22694;51.040;3.684;2022-09-21T05:28:24;14.90;85.60
36710;DHT22;22694;51.040;3.684;2022-09-21T05:30:57;14.90;85.50
36710;DHT22;22694;51.040;3.684;2022-09-21T05:33:27;14.90;85.50
36710;DHT22;22694;51.040;3.684;2022-09-21T05:36:06;14.90;85.40
36710;DHT22;22694;51.040;3.684;2022-09-21T05:38:36;14.90;85.30
36710;DHT22;22694;51.040;3.684;2022-09-21T05:41:02;14.80;85.40
36710;DHT22;22694;51.040;3.684;2022-09-21T05:43:29;14.90;85.50
36710;DHT22;22694;51.040;3.684;2022-09-21T05:48:57;14.80;85.60
36710;DHT22;22694;51.040;3.684;2022-09-21T05:54:20;15.00;88.70
36710;DHT22;22694;51.040;3.684;2022-09-21T05:59:38;15.30;90.00
36710;DHT22;22694;51.040;3.684;2022-09-21T06:05:10;15.40;89.80
36710;DHT22;22694;51.040;3.684;2022-09-21T06:07:36;15.50;90.30
36710;DHT22;22694;51.040;3.684;2022-09-21T06:10:01;15.60;90.60
36710;DHT22;22694;51.040;3.684;2022-09-21T06:12:27;15.60;90.60
36710;DHT22;22694;51.040;3.684;2022-09-21T06:14:52;15.70;90.60
36710;DHT22;22694;51.040;3.684;2022-09-21T06:17:21;15.80;90.50
36710;DHT22;22694;51.040;3.684;2022-09-21T06:19:47;15.80;90.50
36710;DHT22;22694;51.040;3.684;2022-09-21T06:22:12;15.90;90.50
36710;DHT22;22694;51.040;3.684;2022-09-21T06:24:38;16.20;90.50
36710;DHT22;22694;51.040;3.684;2022-09-21T06:27:03;15.90;90.40
36710;DHT22;22694;51.040;3.684;2022-09-21T06:29:29;16.00;90.40
36710;DHT22;22694;51.040;3.684;2022-09-21T06:31:55;16.00;90.40
36710;DHT22;22694;51.040;3.684;2022-09-21T06:34:20;16.10;90.50
36710;DHT22;22694;51.040;3.684;2022-09-21T06:36:46;16.10;90.20
36710;DHT22;22694;51.040;3.684;2022-09-21T06:39:12;16.00;88.20
36710;DHT22;22694;51.040;3.684;2022-09-21T06:41:38;15.80;86.00
36710;DHT22;22694;51.040;3.684;2022-09-21T06:44:04;15.70;85.30
36710;DHT22;22694;51.040;3.684;2022-09-21T06:46:30;15.70;85.40
36710;DHT22;22694;51.040;3.684;2022-09-21T06:48:55;15.60;85.50
36710;DHT22;22694;51.040;3.684;2022-09-21T06:51:21;15.50;85.70
36710;DHT22;22694;51.040;3.684;2022-09-21T06:53:48;15.50;85.80
36710;DHT22;22694;51.040;3.684;2022-09-21T06:56:14;15.50;85.80
36710;DHT22;22694;51.040;3.684;2022-09-21T06:58:40;15.40;85.80
36710;DHT22;22694;51.040;3.684;2022-09-21T07:01:10;15.40;85.90
36710;DHT22;22694;51.040;3.684;2022-09-21T07:03:37;15.40;86.20
36710;DHT22;22694;51.040;3.684;2022-09-21T07:06:03;15.40;86.20
36710;DHT22;22694;51.040;3.684;2022-09-21T07:08:29;15.40;86.10
36710;DHT22;22694;51.040;3.684;2022-09-21T07:11:00;15.40;86.30
36710;DHT22;22694;51.040;3.684;2022-09-21T07:13:27;15.40;86.30
36710;DHT22;22694;51.040;3.684;2022-09-21T07:15:53;15.40;87.40
36710;DHT22;22694;51.040;3.684;2022-09-21T07:18:19;15.70;91.70
36710;DHT22;22694;51.040;3.684;2022-09-21T07:20:46;15.80;91.70
36710;DHT22;22694;51.040;3.684;2022-09-21T07:23:15;15.90;91.00
36710;DHT22;22694;51.040;3.684;2022-09-21T07:25:42;16.00;90.50
36710;DHT22;22694;51.040;3.684;2022-09-21T07:28:11;16.00;90.10
36710;DHT22;22694;51.040;3.684;2022-09-21T07:30:39;16.00;90.00
36710;DHT22;22694;51.040;3.684;2022-09-21T07:33:07;16.00;89.90
36710;DHT22;22694;51.040;3.684;2022-09-21T07:35:32;16.00;89.90
36710;DHT22;22694;51.040;3.684;2022-09-21T07:37:59;16.00;89.70
36710;DHT22;22694;51.040;3.684;2022-09-21T07:40:26;16.00;89.90
36710;DHT22;22694;51.040;3.684;2022-09-21T07:42:52;16.00;90.20
36710;DHT22;22694;51.040;3.684;2022-09-21T07:45:21;16.00;90.00
36710;DHT22;22694;51.040;3.684;2022-09-21T07:47:47;16.00;89.80
36710;DHT22;22694;51.040;3.684;2022-09-21T07:50:12;16.00;89.50
36710;DHT22;22694;51.040;3.684;2022-09-21T07:52:39;15.90;88.40
36710;DHT22;22694;51.040;3.684;2022-09-21T07:55:05;15.90;88.00
36710;DHT22;22694;51.040;3.684;2022-09-21T07:57:30;16.00;90.30
36710;DHT22;22694;51.040;3.684;2022-09-21T08:00:14;16.00;89.60
36710;DHT22;22694;51.040;3.684;2022-09-21T08:02:40;15.90;87.10
36710;DHT22;22694;51.040;3.684;2022-09-21T08:05:06;15.80;86.40
36710;DHT22;22694;51.040;3.684;2022-09-21T08:07:32;15.70;86.60
36710;DHT22;22694;51.040;3.684;2022-09-21T08:09:57;15.70;86.70
36710;DHT22;22694;51.040;3.684;2022-09-21T08:12:23;15.60;86.90
36710;DHT22;22694;51.040;3.684;2022-09-21T08:14:49;15.60;87.10
36710;DHT22;22694;51.040;3.684;2022-09-21T08:17:14;15.60;87.30
36710;DHT22;22694;51.040;3.684;2022-09-21T08:19:40;15.60;87.50
36710;DHT22;22694;51.040;3.684;2022-09-21T08:22:06;15.50;87.60
36710;DHT22;22694;51.040;3.684;2022-09-21T08:24:32;15.60;88.90
36710;DHT22;22694;51.040;3.684;2022-09-21T08:26:58;15.60;88.90
36710;DHT22;22694;51.040;3.684;2022-09-21T08:29:24;15.60;89.10
36710;DHT22;22694;51.040;3.684;2022-09-21T08:31:51;15.50;89.50
36710;DHT22;22694;51.040;3.684;2022-09-21T08:34:18;15.60;89.60
36710;DHT22;22694;51.040;3.684;2022-09-21T08:36:44;15.60;89.60
36710;DHT22;22694;51.040;3.684;2022-09-21T08:39:11;15.60;89.90
36710;DHT22;22694;51.040;3.684;2022-09-21T08:44:23;15.70;90.00
36710;DHT22;22694;51.040;3.684;2022-09-21T08:47:12;15.60;89.30
36710;DHT22;22694;51.040;3.684;2022-09-21T08:49:41;15.60;88.70
36710;DHT22;22694;51.040;3.684;2022-09-21T08:52:12;15.60;89.50
36710;DHT22;22694;51.040;3.684;2022-09-21T08:55:00;15.60;89.60
36710;DHT22;22694;51.040;3.684;2022-09-21T08:57:32;15.60;89.40
36710;DHT22;22694;51.040;3.684;2022-09-21T08:59:59;15.70;90.20
36710;DHT22;22694;51.040;3.684;2022-09-21T09:08:07;15.90;91.00
36710;DHT22;22694;51.040;3.684;2022-09-21T09:10:41;15.90;90.90
36710;DHT22;22694;51.040;3.684;2022-09-21T09:18:53;15.80;90.50
36710;DHT22;22694;51.040;3.684;2022-09-21T09:21:26;15.70;90.40
36710;DHT22;22694;51.040;3.684;2022-09-21T09:23:59;15.80;91.20
36710;DHT22;22694;51.040;3.684;2022-09-21T09:26:32;15.90;91.10
36710;DHT22;22694;51.040;3.684;2022-09-21T09:31:48;15.90;90.90
36710;DHT22;22694;51.040;3.684;2022-09-21T09:34:35;16.00;90.90
36710;DHT22;22694;51.040;3.684;2022-09-21T09:37:15;15.90;90.80
36710;DHT22;22694;51.040;3.684;2022-09-21T09:39:42;15.90;90.60
36710;DHT22;22694;51.040;3.684;2022-09-21T09:50:21;15.80;90.40
36710;DHT22;22694;51.040;3.684;2022-09-21T09:52:50;15.80;90.40
36710;DHT22;22694;51.040;3.684;2022-09-21T09:55:25;15.70;90.50
36710;DHT22;22694;51.040;3.684;2022-09-21T09:57:52;15.80;90.40
36710;DHT22;22694;51.040;3.684;2022-09-21T10:00:20;15.80;90.50
36710;DHT22;22694;51.040;3.684;2022-09-21T10:02:54;15.80;90.60
36710;DHT22;22694;51.040;3.684;2022-09-21T10:07:50;16.10;91.50
36710;DHT22;22694;51.040;3.684;2022-09-21T10:13:15;16.20;90.80
36710;DHT22;22694;51.040;3.684;2022-09-21T10:15:49;16.20;90.60
36710;DHT22;22694;51.040;3.684;2022-09-21T10:18:46;16.30;90.60
36710;DHT22;22694;51.040;3.684;2022-09-21T10:21:32;16.30;90.20
36710;DHT22;22694;51.040;3.684;2022-09-21T10:24:06;16.40;90.20
36710;DHT22;22694;51.040;3.684;2022-09-21T10:32:02;16.60;89.60
36710;DHT22;22694;51.040;3.684;2022-09-21T10:34:30;16.80;90.90
36710;DHT22;22694;51.040;3.684;2022-09-21T10:37:01;17.00;90.60
36710;DHT22;22694;51.040;3.684;2022-09-21T10:39:31;17.20;89.50
36710;DHT22;22694;51.040;3.684;2022-09-21T10:42:11;17.20;88.30
36710;DHT22;22694;51.040;3.684;2022-09-21T10:44:39;17.30;87.50
36710;DHT22;22694;51.040;3.684;2022-09-21T10:49:56;17.50;86.30
36710;DHT22;22694;51.040;3.684;2022-09-21T10:52:33;17.60;86.10
36710;DHT22;22694;51.040;3.684;2022-09-21T10:55:00;17.60;85.70
36710;DHT22;22694;51.040;3.684;2022-09-21T10:57:27;17.70;85.90
36710;DHT22;22694;51.040;3.684;2022-09-21T10:59:54;17.80;85.70
36710;DHT22;22694;51.040;3.684;2022-09-21T11:02:33;17.90;85.90
36710;DHT22;22694;51.040;3.684;2022-09-21T11:07:42;18.00;85.10
36710;DHT22;22694;51.040;3.684;2022-09-21T11:16:00;18.20;84.20
36710;DHT22;22694;51.040;3.684;2022-09-21T11:18:39;18.20;84.00
36710;DHT22;22694;51.040;3.684;2022-09-21T11:21:23;18.30;83.70
36710;DHT22;22694;51.040;3.684;2022-09-21T11:24:06;18.30;83.40
36710;DHT22;22694;51.040;3.684;2022-09-21T11:27:01;18.40;83.30
36710;DHT22;22694;51.040;3.684;2022-09-21T11:29:36;18.40;83.30
36710;DHT22;22694;51.040;3.684;2022-09-21T11:38:19;18.60;83.10
36710;DHT22;22694;51.040;3.684;2022-09-21T11:41:12;18.80;82.60
36710;DHT22;22694;51.040;3.684;2022-09-21T11:57:41;19.30;81.20
36710;DHT22;22694;51.040;3.684;2022-09-21T12:00:19;19.40;81.10
36710;DHT22;22694;51.040;3.684;2022-09-21T12:03:17;19.50;81.10
36710;DHT22;22694;51.040;3.684;2022-09-21T12:14:29;19.70;80.80
36710;DHT22;22694;51.040;3.684;2022-09-21T12:17:12;19.70;80.80
36710;DHT22;22694;51.040;3.684;2022-09-21T12:19:52;19.70;80.80
36710;DHT22;22694;51.040;3.684;2022-09-21T12:22:28;19.80;81.40
36710;DHT22;22694;51.040;3.684;2022-09-21T12:25:03;19.80;80.70
36710;DHT22;22694;51.040;3.684;2022-09-21T12:27:37;19.80;81.30
36710;DHT22;22694;51.040;3.684;2022-09-21T12:30:13;19.80;80.60
36710;DHT22;22694;51.040;3.684;2022-09-21T12:35:24;20.00;80.60
36710;DHT22;22694;51.040;3.684;2022-09-21T12:37:56;20.00;80.60
36710;DHT22;22694;51.040;3.684;2022-09-21T12:40:34;20.00;80.50
36710;DHT22;22694;51.040;3.684;2022-09-21T12:45:41;20.10;80.50
36710;DHT22;22694;51.040;3.684;2022-09-21T12:50:51;20.10;80.40
36710;DHT22;22694;51.040;3.684;2022-09-21T12:53:24;20.10;80.40
36710;DHT22;22694;51.040;3.684;2022-09-21T12:56:14;20.10;80.30
36710;DHT22;22694;51.040;3.684;2022-09-21T12:59:05;20.10;80.20
36710;DHT22;22694;51.040;3.684;2022-09-21T13:04:30;20.20;80.30
36710;DHT22;22694;51.040;3.684;2022-09-21T13:09:44;20.20;80.20
36710;DHT22;22694;51.040;3.684;2022-09-21T13:12:21;20.20;80.50
36710;DHT22;22694;51.040;3.684;2022-09-21T13:14:53;20.30;80.60
36710;DHT22;22694;51.040;3.684;2022-09-21T13:17:29;20.30;80.90
36710;DHT22;22694;51.040;3.684;2022-09-21T13:22:24;20.20;80.60
36710;DHT22;22694;51.040;3.684;2022-09-21T13:51:32;20.30;81.30
36710;DHT22;22694;51.040;3.684;2022-09-21T13:54:00;20.30;81.50
36710;DHT22;22694;51.040;3.684;2022-09-21T13:56:27;20.30;81.50
36710;DHT22;22694;51.040;3.684;2022-09-21T13:58:55;20.30;81.50
36710;DHT22;22694;51.040;3.684;2022-09-21T14:01:33;20.30;81.50
36710;DHT22;22694;51.040;3.684;2022-09-21T14:04:05;20.30;81.40
36710;DHT22;22694;51.040;3.684;2022-09-21T14:06:45;20.30;81.40
36710;DHT22;22694;51.040;3.684;2022-09-21T14:09:22;20.30;81.50
36710;DHT22;22694;51.040;3.684;2022-09-21T14:11:58;20.30;81.40
36710;DHT22;22694;51.040;3.684;2022-09-21T14:14:34;20.20;81.30
36710;DHT22;22694;51.040;3.684;2022-09-21T14:17:03;20.20;81.30
36710;DHT22;22694;51.040;3.684;2022-09-21T14:24:47;20.20;81.00
36710;DHT22;22694;51.040;3.684;2022-09-21T14:27:30;20.20;80.20
36710;DHT22;22694;51.040;3.684;2022-09-21T14:30:20;20.20;79.50
36710;DHT22;22694;51.040;3.684;2022-09-21T14:35:44;20.10;77.90
36710;DHT22;22694;51.040;3.684;2022-09-21T14:38:33;20.10;77.30
36710;DHT22;22694;51.040;3.684;2022-09-21T14:41:04;20.10;77.80
36710;DHT22;22694;51.040;3.684;2022-09-21T14:43:33;20.00;78.20
36710;DHT22;22694;51.040;3.684;2022-09-21T14:46:38;20.00;78.30
36710;DHT22;22694;51.040;3.684;2022-09-21T14:54:50;19.90;77.70
36710;DHT22;22694;51.040;3.684;2022-09-21T15:05:40;19.80;77.40
36710;DHT22;22694;51.040;3.684;2022-09-21T15:08:32;19.80;77.40
36710;DHT22;22694;51.040;3.684;2022-09-21T15:11:35;19.80;77.50
36710;DHT22;22694;51.040;3.684;2022-09-21T15:14:50;19.70;77.80
36710;DHT22;22694;51.040;3.684;2022-09-21T15:16:49;19.70;78.00
36710;DHT22;22694;51.040;3.684;2022-09-21T15:19:34;19.70;78.20
36710;DHT22;22694;51.040;3.684;2022-09-21T15:22:17;19.70;78.20
36710;DHT22;22694;51.040;3.684;2022-09-21T15:24:52;19.70;78.60
36710;DHT22;22694;51.040;3.684;2022-09-21T15:27:21;19.70;79.10
36710;DHT22;22694;51.040;3.684;2022-09-21T15:29:53;19.70;79.50
36710;DHT22;22694;51.040;3.684;2022-09-21T15:32:42;19.70;79.30
36710;DHT22;22694;51.040;3.684;2022-09-21T15:37:40;19.70;79.80
36710;DHT22;22694;51.040;3.684;2022-09-21T15:40:20;19.80;79.90
36710;DHT22;22694;51.040;3.684;2022-09-21T15:43:16;19.80;80.10
36710;DHT22;22694;51.040;3.684;2022-09-21T15:48:42;19.90;80.90
36710;DHT22;22694;51.040;3.684;2022-09-21T15:51:24;19.90;80.30
36710;DHT22;22694;51.040;3.684;2022-09-21T15:53:52;19.90;80.40
36710;DHT22;22694;51.040;3.684;2022-09-21T15:56:22;19.80;80.30
36710;DHT22;22694;51.040;3.684;2022-09-21T15:58:50;19.80;80.60
36710;DHT22;22694;51.040;3.684;2022-09-21T16:01:20;19.80;80.60
36710;DHT22;22694;51.040;3.684;2022-09-21T16:03:48;19.80;80.70
36710;DHT22;22694;51.040;3.684;2022-09-21T16:06:35;19.80;80.90
36710;DHT22;22694;51.040;3.684;2022-09-21T16:09:36;19.70;80.90
36710;DHT22;22694;51.040;3.684;2022-09-21T16:15:05;19.70;81.20
36710;DHT22;22694;51.040;3.684;2022-09-21T16:17:36;19.70;81.30
36710;DHT22;22694;51.040;3.684;2022-09-21T16:20:03;19.80;81.40
36710;DHT22;22694;51.040;3.684;2022-09-21T16:22:42;19.80;81.50
36710;DHT22;22694;51.040;3.684;2022-09-21T16:28:00;19.60;81.00
36710;DHT22;22694;51.040;3.684;2022-09-21T16:33:37;19.50;81.20
36710;DHT22;22694;51.040;3.684;2022-09-21T16:38:56;19.50;81.20
36710;DHT22;22694;51.040;3.684;2022-09-21T16:41:25;19.50;82.00
36710;DHT22;22694;51.040;3.684;2022-09-21T16:43:55;19.40;81.40
36710;DHT22;22694;51.040;3.684;2022-09-21T16:46:22;19.30;81.90
36710;DHT22;22694;51.040;3.684;2022-09-21T16:48:49;19.40;81.50
36710;DHT22;22694;51.040;3.684;2022-09-21T16:51:15;19.30;81.50
36710;DHT22;22694;51.040;3.684;2022-09-21T16:53:50;19.30;81.60
36710;DHT22;22694;51.040;3.684;2022-09-21T16:56:16;19.20;81.80
36710;DHT22;22694;51.040;3.684;2022-09-21T16:58:43;19.20;81.80
36710;DHT22;22694;51.040;3.684;2022-09-21T17:01:11;19.20;81.90
36710;DHT22;22694;51.040;3.684;2022-09-21T17:03:41;19.30;82.40
36710;DHT22;22694;51.040;3.684;2022-09-21T17:06:16;19.30;82.50
36710;DHT22;22694;51.040;3.684;2022-09-21T17:08:43;19.30;83.00
36710;DHT22;22694;51.040;3.684;2022-09-21T17:11:13;19.30;82.40
36710;DHT22;22694;51.040;3.684;2022-09-21T17:13:45;19.30;82.50
36710;DHT22;22694;51.040;3.684;2022-09-21T17:16:10;19.30;82.50
36710;DHT22;22694;51.040;3.684;2022-09-21T17:18:36;19.30;82.50
36710;DHT22;22694;51.040;3.684;2022-09-21T17:21:01;19.30;82.60
36710;DHT22;22694;51.040;3.684;2022-09-21T17:23:28;19.30;82.70
36710;DHT22;22694;51.040;3.684;2022-09-21T17:25:54;19.30;82.80
36710;DHT22;22694;51.040;3.684;2022-09-21T17:28:23;19.30;82.60
36710;DHT22;22694;51.040;3.684;2022-09-21T17:30:51;19.20;82.30
36710;DHT22;22694;51.040;3.684;2022-09-21T17:33:17;19.20;82.30
36710;DHT22;22694;51.040;3.684;2022-09-21T17:35:46;19.10;82.40
36710;DHT22;22694;51.040;3.684;2022-09-21T17:38:12;19.10;83.00
36710;DHT22;22694;51.040;3.684;2022-09-21T17:40:38;19.10;82.40
36710;DHT22;22694;51.040;3.684;2022-09-21T17:43:30;19.00;82.40
36710;DHT22;22694;51.040;3.684;2022-09-21T17:46:05;19.00;83.10
36710;DHT22;22694;51.040;3.684;2022-09-21T17:48:32;18.90;82.30
36710;DHT22;22694;51.040;3.684;2022-09-21T17:50:58;18.90;82.60
36710;DHT22;22694;51.040;3.684;2022-09-21T17:53:24;18.90;82.60
36710;DHT22;22694;51.040;3.684;2022-09-21T17:59:05;18.90;82.60
36710;DHT22;22694;51.040;3.684;2022-09-21T18:01:32;18.80;82.70
36710;DHT22;22694;51.040;3.684;2022-09-21T18:04:03;18.80;82.60
36710;DHT22;22694;51.040;3.684;2022-09-21T18:06:29;18.80;82.80
36710;DHT22;22694;51.040;3.684;2022-09-21T18:08:56;18.80;82.90
36710;DHT22;22694;51.040;3.684;2022-09-21T18:25:35;18.60;82.80
36710;DHT22;22694;51.040;3.684;2022-09-21T18:28:16;18.60;82.80
36710;DHT22;22694;51.040;3.684;2022-09-21T18:30:49;18.50;82.90
36710;DHT22;22694;51.040;3.684;2022-09-21T18:36:43;18.50;83.00
36710;DHT22;22694;51.040;3.684;2022-09-21T18:39:28;18.60;83.10
36710;DHT22;22694;51.040;3.684;2022-09-21T18:42:09;18.50;83.10
36710;DHT22;22694;51.040;3.684;2022-09-21T18:44:48;18.50;84.10
36710;DHT22;22694;51.040;3.684;2022-09-21T18:47:50;18.60;84.40
36710;DHT22;22694;51.040;3.684;2022-09-21T18:50:35;18.70;82.80
36710;DHT22;22694;51.040;3.684;2022-09-21T18:53:25;18.60;82.10
36710;DHT22;22694;51.040;3.684;2022-09-21T18:55:53;18.50;81.80
36710;DHT22;22694;51.040;3.684;2022-09-21T18:58:19;18.50;81.80
36710;DHT22;22694;51.040;3.684;2022-09-21T19:00:45;18.40;81.90
36710;DHT22;22694;51.040;3.684;2022-09-21T19:03:13;18.40;82.00
36710;DHT22;22694;51.040;3.684;2022-09-21T19:05:51;18.30;82.00
36710;DHT22;22694;51.040;3.684;2022-09-21T19:08:26;18.30;82.00
36710;DHT22;22694;51.040;3.684;2022-09-21T19:13:53;18.20;81.90
36710;DHT22;22694;51.040;3.684;2022-09-21T19:16:35;18.20;82.00
36710;DHT22;22694;51.040;3.684;2022-09-21T19:22:08;18.10;82.00
36710;DHT22;22694;51.040;3.684;2022-09-21T19:24:43;18.10;82.00
36710;DHT22;22694;51.040;3.684;2022-09-21T19:30:07;18.00;82.10
36710;DHT22;22694;51.040;3.684;2022-09-21T19:32:43;18.00;82.00
36710;DHT22;22694;51.040;3.684;2022-09-21T19:35:27;18.00;82.20
36710;DHT22;22694;51.040;3.684;2022-09-21T19:37:55;17.90;82.20
36710;DHT22;22694;51.040;3.684;2022-09-21T19:40:23;17.90;82.10
36710;DHT22;22694;51.040;3.684;2022-09-21T19:43:08;17.90;82.80
36710;DHT22;22694;51.040;3.684;2022-09-21T19:48:09;17.90;82.70
36710;DHT22;22694;51.040;3.684;2022-09-21T19:50:50;18.00;82.70